createdAt,value
2018-06-22T08:56:46.225Z,14.90
2018-06-22T09:00:48.622Z,15.10
2018-06-22T09:04:50.998Z,15.00
2018-06-22T09:10:36.343Z,15.10
2018-06-22T09:13:38.837Z,15.30
2018-06-22T09:19:43.672Z,15.10
2018-06-22T09:22:46.374Z,15.10
2018-06-22T09:25:49.002Z,15.10
2018-06-22T09:28:51.444Z,15.20
2018-06-22T09:31:54.196Z,15.20
2018-06-22T09:34:56.717Z,15.40
2018-06-22T09:37:59.186Z,15.50
2018-06-22T09:44:03.982Z,15.30
2018-06-22T09:47:07.073Z,15.40
2018-06-22T09:50:09.527Z,15.60
2018-06-22T09:53:11.988Z,15.70
2018-06-22T09:59:16.765Z,15.70
2018-06-22T10:02:19.188Z,15.40
2018-06-22T10:05:21.651Z,14.80
2018-06-22T10:08:24.079Z,14.70
2018-06-22T10:11:26.529Z,14.80
2018-06-22T10:14:28.952Z,15.10
2018-06-22T10:17:31.366Z,15.00
2018-06-22T10:20:33.816Z,14.80
2018-06-22T10:23:36.262Z,14.70
2018-06-22T10:26:38.674Z,15.10
2018-06-22T10:29:41.118Z,15.50
2018-06-22T10:35:52.603Z,15.90
2018-06-22T10:38:54.995Z,15.70
2018-06-22T10:41:57.388Z,15.30
2018-06-22T10:45:00.165Z,15.00
2018-06-22T10:48:02.581Z,14.80
2018-06-22T10:51:05.038Z,14.50
2018-06-22T10:54:07.487Z,14.50
2018-06-22T10:57:10.067Z,14.80
2018-06-22T11:03:15.300Z,15.60
2018-06-22T11:06:17.753Z,15.80
2018-06-22T11:09:20.260Z,15.90
2018-06-22T11:12:22.765Z,15.90
2018-06-22T11:15:25.285Z,16.20
2018-06-22T11:18:28.213Z,16.60
2018-06-22T11:21:30.699Z,16.40
2018-06-22T11:24:33.258Z,16.50
2018-06-22T11:27:35.665Z,16.60
2018-06-22T11:30:38.147Z,17.10
2018-06-22T11:33:40.579Z,16.80
2018-06-22T11:36:43.087Z,17.00
2018-06-22T11:39:45.685Z,16.70
2018-06-22T11:42:48.171Z,17.10
2018-06-22T11:45:50.716Z,17.20
2018-06-22T11:48:53.196Z,17.10
2018-06-22T11:51:55.707Z,17.20
2018-06-22T11:54:58.132Z,16.90
2018-06-22T11:58:00.552Z,16.80
2018-06-22T12:04:05.433Z,17.10
2018-06-22T12:07:07.859Z,17.20
2018-06-22T12:10:10.350Z,17.40
2018-06-22T12:13:48.096Z,17.70
2018-06-22T12:16:50.572Z,17.80
2018-06-22T12:19:53.065Z,17.60
2018-06-22T12:22:55.514Z,17.20
2018-06-22T12:25:57.944Z,17.40
2018-06-22T12:29:00.503Z,18.00
2018-06-22T12:32:02.997Z,18.40
2018-06-22T12:35:05.589Z,18.60
2018-06-22T12:38:08.024Z,18.30
2018-06-22T12:41:10.519Z,17.90
2018-06-22T12:44:13.227Z,18.20
2018-06-22T12:47:15.711Z,18.10
2018-06-22T12:53:20.792Z,17.60
2018-06-22T12:56:23.231Z,17.90
2018-06-22T12:59:25.699Z,18.10
2018-06-22T13:02:28.145Z,18.20
2018-06-22T13:05:30.636Z,18.00
2018-06-22T13:08:33.081Z,18.20
2018-06-22T13:11:35.592Z,18.50
2018-06-22T13:14:38.032Z,18.90
2018-06-22T13:17:40.720Z,18.70
2018-06-22T13:20:43.212Z,18.60
2018-06-22T13:23:45.666Z,17.90
2018-06-22T13:26:48.138Z,17.50
2018-06-22T13:29:50.586Z,17.00
2018-06-22T13:32:52.978Z,17.00
2018-06-22T13:35:55.497Z,17.30
2018-06-22T13:38:58.058Z,17.50
2018-06-22T13:42:00.490Z,17.80
2018-06-22T13:45:03.101Z,18.00
2018-06-22T13:48:05.642Z,18.70
2018-06-22T13:51:08.169Z,19.90
2018-06-22T13:54:10.606Z,20.20
2018-06-22T13:57:13.167Z,19.80
2018-06-22T14:00:15.539Z,19.80
2018-06-22T14:03:18.886Z,19.60
2018-06-22T14:06:26.784Z,19.30
2018-06-22T14:09:29.278Z,18.90
2018-06-22T14:12:32.642Z,18.40
2018-06-22T14:15:35.262Z,18.10
2018-06-22T14:18:37.673Z,18.00
2018-06-22T14:21:40.346Z,18.00
2018-06-22T14:24:42.763Z,18.90
2018-06-22T14:27:45.208Z,19.10
2018-06-22T14:30:47.674Z,19.90
2018-06-22T14:33:50.391Z,21.20
2018-06-22T14:36:53.189Z,20.80
2018-06-22T14:39:55.717Z,20.30
2018-06-22T14:46:00.592Z,21.30
2018-06-22T14:49:02.982Z,21.20
2018-06-22T14:52:05.551Z,20.80
2018-06-22T14:55:13.649Z,20.40
2018-06-22T14:58:21.815Z,20.30
2018-06-22T15:01:29.761Z,20.10
2018-06-22T15:04:37.883Z,21.00
2018-06-22T15:07:45.789Z,22.00
2018-06-22T15:10:48.236Z,22.30
2018-06-22T15:13:50.651Z,23.40
2018-06-22T15:16:53.154Z,24.40
2018-06-22T15:19:55.585Z,23.20
2018-06-22T15:22:58.009Z,21.40
2018-06-22T15:26:00.445Z,20.10
2018-06-22T15:29:02.855Z,20.10
2018-06-22T15:32:05.344Z,20.20
2018-06-22T15:35:13.696Z,20.40
2018-06-22T15:38:21.702Z,22.00
2018-06-22T15:41:29.918Z,22.70
2018-06-22T15:44:38.190Z,23.70
2018-06-22T15:47:46.394Z,24.30
2018-06-22T15:50:54.424Z,24.70
2018-06-22T15:54:02.555Z,25.20
2018-06-22T15:57:05.057Z,25.00
2018-06-22T16:00:09.103Z,25.40
2018-06-22T16:03:17.152Z,24.40
2018-06-22T16:06:19.967Z,25.20
2018-06-22T16:09:22.363Z,25.00
2018-06-22T16:12:30.613Z,24.80
2018-06-22T16:15:38.552Z,23.20
2018-06-22T16:19:45.123Z,21.80
2018-06-22T16:22:53.549Z,22.80
2018-06-22T16:26:01.801Z,24.80
2018-06-22T16:29:04.288Z,25.00
2018-06-22T16:32:07.040Z,25.10
2018-06-22T16:35:09.401Z,25.10
2018-06-22T16:38:11.872Z,24.30
2018-06-22T16:41:14.321Z,24.20
2018-06-22T16:44:16.753Z,25.00
2018-06-22T16:47:19.356Z,24.30
2018-06-22T16:50:21.817Z,22.80
2018-06-22T16:53:24.243Z,21.50
2018-06-22T16:56:26.861Z,21.00
2018-06-22T16:59:29.393Z,20.00
2018-06-22T17:02:31.811Z,19.20
2018-06-22T17:05:34.213Z,18.30
2018-06-22T17:08:42.505Z,17.40
2018-06-22T17:11:50.560Z,17.10
2018-06-22T17:14:58.644Z,16.70
2018-06-22T17:18:06.829Z,16.40
2018-06-22T17:21:09.456Z,16.30
2018-06-22T17:24:11.855Z,16.20
2018-06-22T17:27:14.282Z,15.90
2018-06-22T17:30:16.719Z,16.00
2018-06-22T17:33:19.124Z,16.20
2018-06-22T17:36:21.533Z,16.50
2018-06-22T17:39:24.592Z,17.00
2018-06-22T17:42:27.026Z,17.60
2018-06-22T17:45:29.493Z,17.70
2018-06-22T17:48:31.966Z,17.10
2018-06-22T17:51:34.418Z,16.70
2018-06-22T17:54:36.804Z,16.80
2018-06-22T17:57:39.210Z,16.80
2018-06-22T18:00:47.389Z,16.80
2018-06-22T18:03:55.531Z,17.00
2018-06-22T18:07:03.456Z,17.10
2018-06-22T18:10:11.389Z,17.20
2018-06-22T18:13:13.799Z,17.60
2018-06-22T18:16:16.236Z,17.80
2018-06-22T18:19:18.873Z,17.70
2018-06-22T18:22:21.267Z,17.60
2018-06-22T18:25:23.661Z,17.60
2018-06-22T18:28:26.048Z,17.50
2018-06-22T18:31:28.521Z,17.50
2018-06-22T18:34:30.913Z,17.70
2018-06-22T18:37:33.357Z,17.80
2018-06-22T18:40:35.817Z,17.90
2018-06-22T18:43:43.925Z,17.80
2018-06-22T18:46:46.365Z,17.80
2018-06-22T18:49:48.805Z,17.60
2018-06-22T18:52:56.911Z,17.50
2018-06-22T18:56:04.881Z,17.40
2018-06-22T18:59:13.059Z,17.30
2018-06-22T19:02:21.311Z,17.10
2018-06-22T19:05:23.748Z,17.10
2018-06-22T19:08:26.135Z,17.00
2018-06-22T19:11:28.946Z,16.80
2018-06-22T19:14:31.449Z,16.60
2018-06-22T19:17:33.924Z,16.60
2018-06-22T19:20:36.326Z,16.50
2018-06-22T19:23:38.736Z,16.30
2018-06-22T19:26:41.164Z,16.20
2018-06-22T19:29:43.544Z,16.10
2018-06-22T19:32:46.356Z,16.10
2018-06-22T19:35:48.769Z,16.00
2018-06-22T19:38:51.181Z,15.80
2018-06-22T19:41:53.623Z,15.90
2018-06-22T19:45:01.741Z,15.70
2018-06-22T19:48:10.228Z,15.70
2018-06-22T19:51:18.346Z,15.70
2018-06-22T19:54:20.824Z,15.70
2018-06-22T19:57:23.357Z,15.70
2018-06-22T20:00:25.771Z,15.60
2018-06-22T20:03:28.218Z,15.60
2018-06-22T20:06:30.608Z,15.60
2018-06-22T20:09:33.060Z,15.60
2018-06-22T20:12:35.483Z,15.50
2018-06-22T20:15:37.927Z,15.50
2018-06-22T20:18:40.518Z,15.50
2018-06-22T20:21:42.898Z,15.50
2018-06-22T20:24:50.888Z,15.40
2018-06-22T20:27:53.681Z,15.40
2018-06-22T20:30:56.153Z,15.30
2018-06-22T20:34:04.037Z,15.30
2018-06-22T20:37:12.045Z,15.30
2018-06-22T20:41:23.669Z,15.30
2018-06-22T20:44:31.777Z,15.20
2018-06-22T20:47:39.848Z,15.20
2018-06-22T20:50:42.327Z,15.10
2018-06-22T20:53:44.749Z,15.10
2018-06-22T20:56:47.165Z,15.00
2018-06-22T20:59:49.843Z,15.00
2018-06-22T21:02:52.265Z,14.90
2018-06-22T21:05:54.675Z,14.90
2018-06-22T21:08:57.083Z,14.90
2018-06-22T21:11:59.524Z,14.80
2018-06-22T21:15:01.928Z,14.80
2018-06-22T21:18:04.348Z,14.80
2018-06-22T21:21:12.546Z,14.80
2018-06-22T21:24:15.022Z,14.80
2018-06-22T21:27:22.994Z,14.90
2018-06-22T21:30:31.236Z,14.90
2018-06-22T21:33:39.324Z,15.00
2018-06-22T21:36:47.550Z,15.00
2018-06-22T21:39:49.986Z,15.10
2018-06-22T21:42:52.347Z,15.10
2018-06-22T21:45:54.718Z,15.10
2018-06-22T21:48:57.193Z,15.10
2018-06-22T21:51:59.574Z,15.10
2018-06-22T21:55:02.157Z,15.10
2018-06-22T21:58:04.728Z,15.10
2018-06-22T22:01:09.031Z,15.10
2018-06-22T22:04:11.550Z,15.20
2018-06-22T22:07:13.943Z,15.10
2018-06-22T22:10:20.922Z,15.10
2018-06-22T22:13:23.391Z,15.10
2018-06-22T22:16:25.824Z,15.20
2018-06-22T22:19:28.232Z,15.10
2018-06-22T22:22:30.622Z,15.10
2018-06-22T22:25:33.103Z,15.20
2018-06-22T22:28:35.533Z,15.00
2018-06-22T22:31:37.922Z,15.00
2018-06-22T22:34:40.303Z,15.00
2018-06-22T22:37:42.683Z,15.00
2018-06-22T22:40:45.081Z,14.90
2018-06-22T22:43:47.527Z,14.90
2018-06-22T22:46:49.923Z,14.90
2018-06-22T22:49:52.321Z,15.00
2018-06-22T22:52:54.707Z,14.90
2018-06-22T22:55:57.125Z,14.90
2018-06-22T22:58:59.513Z,14.90
2018-06-22T23:02:01.926Z,14.90
2018-06-22T23:05:04.304Z,14.90
2018-06-22T23:08:06.729Z,14.90
2018-06-22T23:11:09.155Z,14.90
2018-06-22T23:14:11.579Z,14.80
2018-06-22T23:17:14.185Z,14.80
2018-06-22T23:20:16.550Z,14.90
2018-06-22T23:23:26.283Z,14.90
2018-06-22T23:26:28.668Z,14.80
2018-06-22T23:29:31.071Z,14.80
2018-06-22T23:32:33.474Z,14.90
2018-06-22T23:35:35.947Z,14.90
2018-06-22T23:38:38.322Z,14.80
2018-06-22T23:41:40.705Z,14.70
2018-06-22T23:44:43.117Z,14.70
2018-06-22T23:47:45.505Z,14.70
2018-06-22T23:50:47.914Z,14.70
2018-06-22T23:53:50.306Z,14.70
2018-06-22T23:56:52.692Z,14.70
2018-06-22T23:59:55.079Z,14.60
